Time;durP1;ratioP1;P1;durP2;ratioP2;P2;SDS_P1;SDS_P2;PMS_P1;PMS_P2;Temp;Humidity;BMP_temperature;BMP_pressure;BME280_temperature;BME280_humidity;BME280_pressure;Samples;Min_cycle;Max_cycle;Signal;HPM_P1;HPM_P2
2021/12/05 00:21:59;;;;;;;153.52;88.63;;;2.10;1.00;;;;;;5076050;28;20055;-78
2021/12/05 00:24:32;;;;;;;137.13;81.65;;;2.00;73.30;;;;;;5075086;28;20051;-79
2021/12/05 00:27:07;;;;;;;145.38;83.30;;;2.10;99.90;;;;;;5076983;28;20086;-79
2021/12/05 00:29:40;;;;;;;146.15;85.80;;;2.20;1.00;;;;;;5075281;28;20561;-80
2021/12/05 00:32:18;;;;;;;161.73;93.03;;;2.30;1.00;;;;;;5074480;28;20045;-81
2021/12/05 00:38:41;;;;;;;209.02;119.07;;;2.50;1.00;;;;;;5076639;28;20044;-80
2021/12/05 00:44:26;;;;;;;194.50;111.55;;;2.60;1.00;;;;;;5102312;28;20027;-80
2021/12/05 00:47:05;;;;;;;207.88;114.97;;;2.60;1.00;;;;;;5084065;28;20036;-81
2021/12/05 00:58:26;;;;;;;165.02;95.88;;;2.50;1.00;;;;;;5041660;28;20051;-80
2021/12/05 01:09:18;;;;;;;122.95;72.28;;;2.50;1.00;;;;;;5096173;28;20056;-80
2021/12/05 01:15:11;;;;;;;151.25;86.80;;;2.80;81.10;;;;;;5098209;28;20040;-80
2021/12/05 01:17:55;;;;;;;156.77;92.00;;;2.90;1.00;;;;;;5081043;28;20045;-82
2021/12/05 01:20:27;;;;;;;150.50;89.70;;;2.90;43.30;;;;;;5086713;28;20055;-82
2021/12/05 01:22:58;;;;;;;135.45;80.80;;;2.90;99.90;;;;;;5082168;28;20143;-82
2021/12/05 01:25:37;;;;;;;142.48;84.43;;;3.00;1.00;;;;;;5087310;28;20032;-80
2021/12/05 01:28:12;;;;;;;149.88;92.20;;;3.00;1.00;;;;;;5094046;28;20052;-81
2021/12/05 01:30:46;;;;;;;145.85;90.43;;;2.90;1.00;;;;;;5075992;28;20526;-80
2021/12/05 01:33:21;;;;;;;155.57;93.53;;;2.90;1.00;;;;;;5074556;28;20056;-81
2021/12/05 01:36:11;;;;;;;165.02;97.15;;;3.00;99.90;;;;;;5075069;28;20450;-80
2021/12/05 01:39:03;;;;;;;143.45;84.93;;;3.00;99.90;;;;;;5085538;28;20040;-82
2021/12/05 01:53:27;;;;;;;115.57;67.82;;;3.20;1.00;;;;;;5091773;28;20055;-81
2021/12/05 01:56:18;;;;;;;113.55;66.55;;;3.20;1.00;;;;;;5107142;28;20451;-82
2021/12/05 01:59:11;;;;;;;127.30;74.28;;;3.20;99.90;;;;;;5108140;28;20044;-80
2021/12/05 02:29:45;;;;;;;100.15;59.15;;;3.30;1.00;;;;;;5040492;28;20504;-80
2021/12/05 02:35:37;;;;;;;105.85;61.05;;;3.40;1.00;;;;;;5094242;28;20044;-81
2021/12/05 02:38:33;;;;;;;88.18;53.50;;;3.40;1.00;;;;;;5081516;28;20080;-80
2021/12/05 02:41:09;;;;;;;98.13;60.42;;;3.40;1.00;;;;;;5076788;28;20543;-81
2021/12/05 02:43:39;;;;;;;;;;;3.40;1.00;;;;;;5076422;28;20040;-81
2021/12/05 02:46:09;;;;;;;88.53;54.72;;;3.40;1.00;;;;;;5076524;28;19926;-83
2021/12/05 02:48:38;;;;;;;75.20;45.50;;;3.40;1.00;;;;;;5077904;28;20135;-81
2021/12/05 02:51:16;;;;;;;84.10;54.08;;;3.40;1.00;;;;;;5078109;28;20048;-81
2021/12/05 02:53:49;;;;;;;72.15;44.45;;;3.50;72.30;;;;;;5075472;28;20427;-82
2021/12/05 02:56:19;;;;;;;75.22;45.17;;;3.50;1.00;;;;;;5075532;28;20071;-82
2021/12/05 02:58:50;;;;;;;95.20;58.78;;;3.60;1.00;;;;;;5096588;28;20040;-82
2021/12/05 03:01:27;;;;;;;90.80;58.35;;;3.50;99.90;;;;;;5096812;28;20533;-80
2021/12/05 03:03:56;;;;;;;84.85;50.60;;;3.50;1.00;;;;;;5096621;28;20488;-82
2021/12/05 03:06:27;;;;;;;78.70;49.50;;;3.60;1.00;;;;;;5099780;28;20071;-80
2021/12/05 03:08:59;;;;;;;103.53;59.53;;;3.50;1.00;;;;;;5100513;28;20048;-81
2021/12/05 03:11:29;;;;;;;92.43;56.42;;;3.50;1.00;;;;;;5100580;28;20044;-82
2021/12/05 03:13:58;;;;;;;89.70;56.33;;;3.40;1.00;;;;;;5101172;28;20059;-81
2021/12/05 03:16:31;;;;;;;81.78;51.30;;;3.40;99.90;;;;;;5084664;28;20158;-82
2021/12/05 03:18:59;;;;;;;75.15;46.80;;;3.50;1.00;;;;;;5080583;28;20128;-81
2021/12/05 03:21:27;;;;;;;68.70;45.13;;;3.50;1.00;;;;;;5097970;28;20060;-81
2021/12/05 03:23:57;;;;;;;64.65;38.72;;;3.60;99.90;;;;;;5100084;28;20400;-81
2021/12/05 03:26:27;;;;;;;61.83;40.15;;;3.60;99.90;;;;;;5099028;28;20048;-80
2021/12/05 03:28:57;;;;;;;66.75;42.22;;;3.60;1.00;;;;;;5100077;28;20093;-80
2021/12/05 03:31:28;;;;;;;72.93;43.60;;;3.70;1.00;;;;;;5099142;28;20044;-81
2021/12/05 03:33:57;;;;;;;66.32;41.92;;;3.80;1.00;;;;;;5097805;28;20445;-81
2021/12/05 03:36:26;;;;;;;73.32;45.40;;;3.80;1.00;;;;;;5098952;28;20028;-80
2021/12/05 03:38:58;;;;;;;67.00;42.92;;;3.80;99.90;;;;;;5099141;28;20046;-82
2021/12/05 03:41:25;;;;;;;67.55;40.83;;;3.80;99.90;;;;;;5099245;28;20048;-82
2021/12/05 03:43:56;;;;;;;66.25;40.88;;;3.80;1.00;;;;;;5099010;28;20102;-81
2021/12/05 03:46:28;;;;;;;75.10;46.95;;;3.70;1.00;;;;;;5098899;28;20040;-81
2021/12/05 03:48:59;;;;;;;82.90;52.28;;;3.80;1.00;;;;;;5090020;28;20093;-81
2021/12/05 03:51:29;;;;;;;81.90;51.03;;;3.80;1.00;;;;;;5086058;28;20070;-82
2021/12/05 03:53:59;;;;;;;90.75;55.83;;;3.80;1.00;;;;;;5094399;28;20049;-82
2021/12/05 03:56:28;;;;;;;86.80;54.03;;;3.90;1.00;;;;;;5096959;28;20044;-82
2021/12/05 03:58:56;;;;;;;88.70;55.90;;;3.90;1.00;;;;;;5115923;28;20126;-82
2021/12/05 04:01:25;;;;;;;78.30;50.40;;;3.90;1.00;;;;;;5111786;28;20116;-82
2021/12/05 04:03:55;;;;;;;90.18;56.50;;;3.90;1.00;;;;;;5117943;28;20039;-80
2021/12/05 04:06:27;;;;;;;82.47;52.70;;;4.00;1.00;;;;;;5109507;28;20055;-81
2021/12/05 04:08:59;;;;;;;98.63;62.25;;;4.00;1.00;;;;;;5108555;28;20106;-81
2021/12/05 04:11:35;;;;;;;91.95;57.88;;;4.00;1.00;;;;;;5104747;28;20083;-80
2021/12/05 04:14:05;;;;;;;80.30;50.05;;;4.00;1.00;;;;;;5100062;28;20040;-80
2021/12/05 04:16:34;;;;;;;84.10;53.05;;;4.00;1.00;;;;;;5083506;28;20565;-80
2021/12/05 04:19:02;;;;;;;93.45;58.08;;;4.00;1.00;;;;;;5094255;28;20045;-82
2021/12/05 04:21:31;;;;;;;92.53;56.25;;;4.00;1.00;;;;;;5076976;28;20500;-81
2021/12/05 04:24:00;;;;;;;76.15;49.72;;;4.00;1.00;;;;;;5092757;28;20070;-80
2021/12/05 04:26:28;;;;;;;86.32;52.05;;;4.00;99.90;;;;;;5097279;28;20025;-82
2021/12/05 04:28:56;;;;;;;81.10;51.15;;;4.00;1.00;;;;;;5097569;28;20115;-82
2021/12/05 04:31:24;;;;;;;86.75;54.60;;;4.10;1.00;;;;;;5083580;28;20111;-81
2021/12/05 04:33:52;;;;;;;88.85;56.40;;;4.20;1.00;;;;;;5098745;28;20096;-81
2021/12/05 04:36:21;;;;;;;89.43;55.03;;;4.20;1.00;;;;;;5098565;28;20042;-82
2021/12/05 04:38:48;;;;;;;89.18;56.10;;;4.20;1.00;;;;;;5099954;28;20055;-80
2021/12/05 04:41:18;;;;;;;90.00;57.35;;;4.20;1.00;;;;;;5099681;28;20115;-83
2021/12/05 04:43:50;;;;;;;91.57;58.90;;;4.20;1.00;;;;;;5098951;28;20044;-81
2021/12/05 04:46:20;;;;;;;94.43;59.00;;;4.20;1.00;;;;;;5097962;28;20040;-82
2021/12/05 04:48:53;;;;;;;100.72;63.05;;;4.20;1.00;;;;;;5095739;28;20048;-82
2021/12/05 04:51:25;;;;;;;102.20;64.65;;;4.20;1.00;;;;;;5086061;28;20507;-81
2021/12/05 04:53:54;;;;;;;101.43;63.10;;;4.10;1.00;;;;;;5096832;28;20051;-80
2021/12/05 04:56:25;;;;;;;86.45;55.90;;;4.20;1.00;;;;;;5098228;28;20040;-81
2021/12/05 04:58:54;;;;;;;91.47;56.17;;;4.20;1.00;;;;;;5097417;28;20135;-80
2021/12/05 05:01:26;;;;;;;83.15;53.97;;;4.10;1.00;;;;;;5095960;28;20044;-81
2021/12/05 05:03:55;;;;;;;89.30;57.42;;;4.20;1.00;;;;;;5097322;28;20048;-81
2021/12/05 05:06:23;;;;;;;75.85;49.53;;;4.20;99.90;;;;;;5097093;28;20101;-80
2021/12/05 05:08:53;;;;;;;68.68;44.45;;;4.20;99.90;;;;;;5089822;28;20040;-81
2021/12/05 05:11:24;;;;;;;64.40;43.78;;;4.20;1.00;;;;;;5081422;28;20049;-81
2021/12/05 05:13:52;;;;;;;62.90;39.30;;;4.20;99.90;;;;;;5081516;28;20040;-83
2021/12/05 05:16:22;;;;;;;66.72;45.13;;;4.20;1.00;;;;;;5094982;28;20456;-81
2021/12/05 05:18:52;;;;;;;79.30;50.15;;;4.20;1.00;;;;;;5103814;28;20075;-81
2021/12/05 05:21:33;;;;;;;77.03;49.78;;;4.20;1.00;;;;;;5100039;28;20572;-80
2021/12/05 05:24:21;;;;;;;61.95;41.75;;;4.20;1.00;;;;;;5099818;28;20052;-80
2021/12/05 05:27:17;;;;;;;76.28;49.35;;;4.20;1.00;;;;;;5109346;28;20290;-80
2021/12/05 05:44:01;;;;;;;60.85;41.67;;;4.20;1.00;;;;;;5115426;28;20044;-80
2021/12/05 05:46:39;;;;;;;61.88;38.83;;;4.20;1.00;;;;;;5117514;28;20063;-80
2021/12/05 05:49:13;;;;;;;62.67;42.72;;;4.30;1.00;;;;;;5114994;28;20039;-82
2021/12/05 05:51:40;;;;;;;62.20;39.95;;;4.30;1.00;;;;;;5108960;28;20044;-82
2021/12/05 05:54:10;;;;;;;54.92;37.67;;;4.40;1.00;;;;;;5109691;28;20039;-82
2021/12/05 05:56:39;;;;;;;60.03;38.53;;;4.40;1.00;;;;;;5109500;28;20062;-80
2021/12/05 05:59:15;;;;;;;54.60;35.97;;;4.40;41.70;;;;;;5101238;28;20058;-80
2021/12/05 06:02:03;;;;;;;70.43;46.03;;;4.50;72.40;;;;;;5087932;28;20485;-81
2021/12/05 06:04:30;;;;;;;68.60;45.80;;;4.60;98.00;;;;;;5095794;28;20097;-80
2021/12/05 06:06:58;;;;;;;76.90;50.00;;;4.60;90.70;;;;;;5098814;28;20403;-81
2021/12/05 06:09:25;;;;;;;64.70;44.15;;;4.70;44.70;;;;;;5112234;28;20109;-82
2021/12/05 06:11:53;;;;;;;67.40;47.28;;;4.70;21.40;;;;;;5117385;28;20095;-80
2021/12/05 06:14:22;;;;;;;61.88;43.67;;;4.70;19.50;;;;;;5107509;28;20029;-81
2021/12/05 06:16:50;;;;;;;71.85;47.45;;;4.60;11.80;;;;;;5113600;28;20040;-81
2021/12/05 06:19:17;;;;;;;74.28;52.00;;;4.70;13.60;;;;;;5113119;28;20105;-81
2021/12/05 06:21:45;;;;;;;95.82;65.03;;;4.60;33.20;;;;;;5115008;28;20070;-80
2021/12/05 06:24:12;;;;;;;52.45;35.97;;;4.70;95.30;;;;;;5120274;28;20017;-79
2021/12/05 06:26:41;;;;;;;63.88;41.78;;;4.70;75.20;;;;;;5117002;28;20052;-79
2021/12/05 06:29:14;;;;;;;70.05;47.92;;;4.70;75.20;;;;;;5116811;28;20054;-80
2021/12/05 06:32:04;;;;;;;79.90;53.40;;;4.70;98.10;;;;;;5108295;28;20042;-81
2021/12/05 06:37:44;;;;;;;91.70;58.05;;;4.70;74.80;;;;;;5111463;28;20082;-82
2021/12/05 06:40:38;;;;;;;86.97;51.33;;;4.70;99.90;;;;;;5112549;28;20052;-81
2021/12/05 06:45:56;;;;;;;87.05;53.45;;;4.80;99.90;;;;;;5083561;28;20052;-82
2021/12/05 06:46:01;;;;;;;79.03;48.53;;;4.80;99.90;;;;;;5089650;28;20048;-81
2021/12/05 06:48:30;;;;;;;81.13;52.17;;;4.80;99.90;;;;;;5115114;28;20040;-80
2021/12/05 06:50:58;;;;;;;77.22;50.55;;;4.90;99.90;;;;;;5102740;28;20072;-80
2021/12/05 06:53:26;;;;;;;80.30;50.17;;;4.80;99.90;;;;;;5099329;28;20048;-81
2021/12/05 06:55:53;;;;;;;75.97;51.67;;;4.80;99.90;;;;;;5099876;28;20044;-82
2021/12/05 06:58:21;;;;;;;76.15;49.88;;;4.90;99.90;;;;;;5100506;28;20500;-82
2021/12/05 07:00:49;;;;;;;75.88;51.75;;;4.90;99.90;;;;;;5099290;28;20044;-81
2021/12/05 07:03:17;;;;;;;73.85;49.88;;;5.00;99.90;;;;;;5101594;28;20410;-81
2021/12/05 07:05:52;;;;;;;73.32;49.72;;;4.90;99.90;;;;;;5100617;28;20487;-81
2021/12/05 07:08:22;;;;;;;69.03;47.75;;;4.90;99.90;;;;;;5098847;28;20456;-80
2021/12/05 07:10:55;;;;;;;71.18;50.38;;;4.90;99.90;;;;;;5103993;28;20484;-79
2021/12/05 07:14:04;;;;;;;81.47;56.67;;;5.10;99.90;;;;;;5100907;28;20075;-80
2021/12/05 07:16:37;;;;;;;114.63;73.07;;;5.20;99.90;;;;;;5095658;28;20043;-80
2021/12/05 07:19:29;;;;;;;73.95;48.38;;;5.30;99.90;;;;;;5099742;28;20518;-80
2021/12/05 07:22:01;;;;;;;73.38;45.22;;;5.30;99.90;;;;;;5110818;28;20044;-81
2021/12/05 07:24:42;;;;;;;87.95;56.05;;;5.40;91.30;;;;;;5119215;28;20056;-79
2021/12/05 07:41:11;;;;;;;;;;;5.50;1.00;;;;;;5086591;28;20054;-79
2021/12/05 07:43:39;;;;;;;122.03;77.88;;;5.40;1.00;;;;;;5099612;28;19920;-82
2021/12/05 07:46:07;;;;;;;76.93;49.55;;;5.50;1.00;;;;;;5098091;28;20077;-80
2021/12/05 07:48:37;;;;;;;65.25;42.67;;;5.60;1.00;;;;;;5098235;28;20139;-81
2021/12/05 07:51:11;;;;;;;80.28;53.88;;;5.80;1.00;;;;;;5099032;28;20036;-80
2021/12/05 07:53:50;;;;;;;87.43;57.15;;;5.90;1.00;;;;;;5099598;28;20552;-83
2021/12/05 07:56:23;;;;;;;81.50;53.40;;;5.90;1.00;;;;;;5099147;28;20055;-81
2021/12/05 07:59:01;;;;;;;90.57;58.15;;;6.00;1.00;;;;;;5098433;28;20425;-80
2021/12/05 08:15:18;;;;;;;162.23;112.55;;;6.60;99.90;;;;;;5101321;28;20403;-83
2021/12/05 08:17:52;;;;;;;148.18;103.95;;;6.60;1.00;;;;;;5102570;28;20039;-83
2021/12/05 08:20:24;;;;;;;149.32;103.85;;;6.70;9.00;;;;;;5106243;28;20056;-81
2021/12/05 08:22:51;;;;;;;143.45;98.50;;;6.80;1.00;;;;;;5106352;28;20052;-80
2021/12/05 08:25:21;;;;;;;147.80;100.38;;;6.80;99.90;;;;;;5097775;28;20039;-84
2021/12/05 08:27:57;;;;;;;134.10;94.28;;;6.90;99.90;;;;;;5097169;28;20040;-83
2021/12/05 08:30:30;;;;;;;138.40;95.50;;;6.90;99.90;;;;;;5104458;28;20051;-85
2021/12/05 08:33:15;;;;;;;137.77;92.32;;;6.90;86.10;;;;;;5103501;28;20509;-83
2021/12/05 09:27:22;;;;;;;227.93;133.25;;;7.60;1.00;;;;;;5091590;28;20465;-84
2021/12/05 10:09:22;;;;;;;228.73;122.35;;;7.30;99.90;;;;;;5080751;28;20043;-86
2021/12/05 10:11:59;;;;;;;220.15;119.18;;;7.20;1.00;;;;;;5057513;28;20040;-84
2021/12/05 10:14:43;;;;;;;221.13;121.80;;;7.30;99.90;;;;;;5077137;28;20048;-83
2021/12/05 10:17:40;;;;;;;240.10;125.95;;;7.30;99.90;;;;;;5081123;28;20123;-85
2021/12/05 10:26:15;;;;;;;247.48;134.60;;;7.30;99.90;;;;;;5080787;28;20052;-84
2021/12/05 10:26:42;;;;;;;246.40;131.23;;;7.20;1.00;;;;;;5014602;28;20051;-86
2021/12/05 10:35:23;;;;;;;246.20;132.25;;;7.40;1.00;;;;;;5048511;28;20036;-87
2021/12/05 10:38:02;;;;;;;243.02;126.93;;;7.40;1.00;;;;;;5080228;28;20500;-87
2021/12/05 10:40:39;;;;;;;249.70;133.68;;;7.40;1.00;;;;;;5055723;28;20045;-85
2021/12/05 10:43:14;;;;;;;241.02;130.07;;;7.30;1.00;;;;;;5079345;28;20061;-86
2021/12/05 10:45:44;;;;;;;237.32;124.75;;;7.20;1.00;;;;;;5060940;28;20055;-84
2021/12/05 10:48:21;;;;;;;244.40;128.52;;;7.00;1.00;;;;;;5060798;28;20040;-84
2021/12/05 10:50:50;;;;;;;248.95;131.07;;;7.00;1.00;;;;;;5078347;28;20131;-83
2021/12/05 10:53:29;;;;;;;262.20;145.85;;;6.90;99.90;;;;;;5060013;28;20479;-85
2021/12/05 10:56:00;;;;;;;270.17;140.77;;;6.70;99.90;;;;;;5077183;28;20043;-83
2021/12/05 10:58:35;;;;;;;256.90;139.50;;;6.60;99.90;;;;;;5077683;28;20028;-85
2021/12/05 11:01:18;;;;;;;256.70;142.63;;;6.60;1.00;;;;;;5081703;28;20120;-85
2021/12/05 11:03:47;;;;;;;274.80;148.88;;;6.60;1.00;;;;;;5059560;28;20045;-85
2021/12/05 11:06:39;;;;;;;283.95;151.50;;;6.60;1.00;;;;;;5062093;28;20416;-86
2021/12/05 11:09:14;;;;;;;280.73;149.63;;;6.60;1.00;;;;;;5076342;28;20087;-85
2021/12/05 11:11:46;;;;;;;273.47;141.43;;;6.60;1.00;;;;;;5060941;28;20052;-85
2021/12/05 11:14:17;;;;;;;273.48;146.98;;;6.50;28.30;;;;;;5063321;28;20613;-86
2021/12/05 11:16:58;;;;;;;272.50;147.30;;;6.50;97.00;;;;;;5080539;28;20060;-85
2021/12/05 11:19:29;;;;;;;274.60;149.18;;;6.50;99.90;;;;;;5064326;28;20071;-86
2021/12/05 11:22:01;;;;;;;249.35;141.55;;;6.50;99.90;;;;;;5061361;28;20059;-84
2021/12/05 11:24:35;;;;;;;248.70;137.80;;;6.40;99.90;;;;;;5080432;28;20060;-84
2021/12/05 11:27:27;;;;;;;227.60;127.35;;;6.40;99.90;;;;;;5065860;28;20074;-86
2021/12/05 11:30:17;;;;;;;220.18;125.10;;;6.40;99.90;;;;;;5061998;28;20463;-83
2021/12/05 11:32:52;;;;;;;247.23;136.38;;;6.40;99.90;;;;;;5064963;28;20116;-84
2021/12/05 11:35:27;;;;;;;224.17;130.80;;;6.50;99.90;;;;;;5080838;28;20072;-85
2021/12/05 11:37:58;;;;;;;217.18;123.65;;;6.60;99.90;;;;;;5072417;28;20068;-85
2021/12/05 11:40:30;;;;;;;241.93;137.43;;;6.60;99.90;;;;;;5065015;28;20044;-86
2021/12/05 11:43:02;;;;;;;246.40;137.38;;;6.60;99.90;;;;;;5060644;28;20053;-83
2021/12/05 11:45:30;;;;;;;241.73;137.15;;;6.70;99.90;;;;;;5067021;28;20041;-86
2021/12/05 11:47:59;;;;;;;240.60;135.38;;;6.60;99.90;;;;;;5082136;28;20086;-83
2021/12/05 11:50:37;;;;;;;238.80;132.43;;;6.60;99.90;;;;;;5049294;28;20086;-86
2021/12/05 11:53:05;;;;;;;220.20;127.90;;;6.60;99.90;;;;;;5079680;28;20089;-83
2021/12/05 11:55:34;;;;;;;214.07;120.15;;;6.70;99.90;;;;;;5078855;28;20041;-83
2021/12/05 11:58:02;;;;;;;183.27;109.28;;;6.70;99.90;;;;;;5076748;28;20040;-83
2021/12/05 12:00:31;;;;;;;190.68;111.32;;;6.70;99.90;;;;;;5051403;28;20059;-83
2021/12/05 12:02:59;;;;;;;210.82;120.97;;;6.60;99.90;;;;;;5072227;28;20047;-82
2021/12/05 12:05:30;;;;;;;235.02;133.52;;;6.60;99.90;;;;;;5056578;28;20072;-83
2021/12/05 12:08:05;;;;;;;230.13;136.00;;;6.60;99.90;;;;;;5084857;28;20036;-81
2021/12/05 12:10:38;;;;;;;231.80;132.15;;;6.60;99.90;;;;;;5096455;28;20576;-84
2021/12/05 12:13:11;;;;;;;207.00;117.63;;;6.70;99.90;;;;;;5054819;28;20049;-82
2021/12/05 12:15:42;;;;;;;237.43;134.43;;;6.60;99.90;;;;;;5081117;28;20071;-82
2021/12/05 12:18:17;;;;;;;229.52;132.07;;;6.60;99.90;;;;;;5076883;28;20044;-83
2021/12/05 12:20:46;;;;;;;239.20;137.10;;;6.60;99.90;;;;;;5076881;28;20403;-82
2021/12/05 12:23:15;;;;;;;212.68;127.63;;;6.50;99.90;;;;;;5085909;28;20066;-84
2021/12/05 12:25:47;;;;;;;197.63;127.15;;;6.60;99.90;;;;;;5085808;28;20037;-83
2021/12/05 12:28:15;;;;;;;182.60;121.95;;;6.60;99.90;;;;;;5078668;28;20047;-84
2021/12/05 12:30:48;;;;;;;215.57;141.35;;;6.60;99.90;;;;;;5078448;28;20123;-85
2021/12/05 12:33:19;;;;;;;213.10;145.93;;;6.70;99.90;;;;;;5080258;28;20048;-83
2021/12/05 12:35:48;;;;;;;227.05;157.27;;;6.70;99.90;;;;;;5079699;28;20115;-83
2021/12/05 12:38:18;;;;;;;223.68;152.60;;;6.80;99.90;;;;;;5062094;28;20041;-84
2021/12/05 12:40:50;;;;;;;208.52;145.98;;;6.70;99.90;;;;;;5080681;28;20040;-84
2021/12/05 12:43:39;;;;;;;195.40;134.75;;;6.70;99.90;;;;;;5079399;28;20083;-81
2021/12/05 12:46:21;;;;;;;187.07;123.70;;;6.80;99.90;;;;;;5059922;28;20052;-84
2021/12/05 12:48:50;;;;;;;170.10;114.25;;;6.80;99.90;;;;;;5081348;28;20039;-83
2021/12/05 12:51:29;;;;;;;147.63;98.13;;;6.90;99.90;;;;;;5083662;28;20037;-79
2021/12/05 12:54:02;;;;;;;137.15;94.03;;;6.90;99.90;;;;;;5097101;28;20032;-82
2021/12/05 12:56:31;;;;;;;129.40;84.75;;;6.90;99.90;;;;;;5097664;28;20048;-80
2021/12/05 12:59:02;;;;;;;111.50;74.38;;;7.00;99.90;;;;;;5096653;28;20146;-84
2021/12/05 13:01:51;;;;;;;106.05;71.60;;;7.10;99.90;;;;;;5089042;28;20454;-84
2021/12/05 13:04:38;;;;;;;60.53;41.53;;;7.10;99.90;;;;;;5055316;28;20053;-84
2021/12/05 13:09:57;;;;;;;;;;;7.20;99.90;;;;;;5077933;28;20464;-83
2021/12/05 13:10:18;;;;;;;42.88;28.38;;;7.20;99.90;;;;;;5079203;28;19916;-84
2021/12/05 13:12:53;;;;;;;37.80;25.52;;;7.30;99.90;;;;;;5081341;28;20064;-86
2021/12/05 13:15:27;;;;;;;51.80;32.70;;;7.40;99.90;;;;;;5079774;28;20580;-87
2021/12/05 13:17:59;;;;;;;48.08;30.98;;;7.40;99.90;;;;;;5073041;28;20041;-85
2021/12/05 13:20:29;;;;;;;33.70;22.88;;;7.40;99.90;;;;;;5061789;28;20089;-85
2021/12/05 13:23:08;;;;;;;26.95;17.98;;;7.40;99.90;;;;;;5082853;28;20067;-86
2021/12/05 13:25:57;;;;;;;27.10;18.80;;;7.40;99.90;;;;;;5085289;28;20044;-85
2021/12/05 13:28:32;;;;;;;31.90;19.35;;;7.40;99.90;;;;;;5098325;28;20050;-82
2021/12/05 13:31:01;;;;;;;31.45;19.75;;;7.30;99.90;;;;;;5092719;28;20025;-86
2021/12/05 13:33:32;;;;;;;28.73;19.70;;;7.40;99.90;;;;;;5086152;28;20407;-85
2021/12/05 13:36:19;;;;;;;27.67;18.13;;;7.50;99.90;;;;;;5084951;28;20036;-85
2021/12/05 13:38:47;;;;;;;25.83;17.48;;;7.60;99.90;;;;;;5065145;28;20139;-84
2021/12/05 13:41:17;;;;;;;25.33;17.67;;;7.60;99.90;;;;;;5064471;28;20044;-84
2021/12/05 13:43:56;;;;;;;27.40;17.95;;;7.70;99.90;;;;;;5081482;28;20071;-84
2021/12/05 13:46:33;;;;;;;34.30;23.13;;;7.70;99.90;;;;;;5062181;28;20136;-84
2021/12/05 13:49:02;;;;;;;31.60;19.98;;;7.70;99.90;;;;;;5079901;28;20036;-84
2021/12/05 13:51:31;;;;;;;30.48;19.42;;;7.70;99.90;;;;;;5079774;28;20047;-83
2021/12/05 13:54:01;;;;;;;27.60;15.80;;;7.70;99.90;;;;;;5063610;28;20052;-83
2021/12/05 13:56:29;;;;;;;24.90;17.45;;;7.80;99.90;;;;;;5081324;28;20039;-85
2021/12/05 13:59:05;;;;;;;20.30;14.18;;;7.90;99.90;;;;;;5064277;28;20066;-86
2021/12/05 14:01:34;;;;;;;20.77;14.18;;;7.90;99.90;;;;;;5061073;28;20211;-83
2021/12/05 14:04:12;;;;;;;21.10;13.38;;;7.90;99.90;;;;;;5061000;28;20132;-83
2021/12/05 14:06:52;;;;;;;19.80;12.20;;;7.90;99.90;;;;;;5061176;28;20048;-83
2021/12/05 14:09:26;;;;;;;17.75;10.88;;;7.90;99.90;;;;;;5080961;28;20040;-83
2021/12/05 14:12:05;;;;;;;19.63;12.95;;;7.90;99.90;;;;;;5071173;28;20104;-84
2021/12/05 14:14:38;;;;;;;17.88;11.85;;;7.80;99.90;;;;;;5080969;28;20372;-84
2021/12/05 14:17:09;;;;;;;15.15;10.35;;;7.70;99.90;;;;;;5069800;28;20041;-86
2021/12/05 14:19:40;;;;;;;21.30;12.00;;;7.70;99.90;;;;;;5083475;28;20045;-85
2021/12/05 14:22:10;;;;;;;22.98;13.85;;;7.80;99.90;;;;;;5088780;28;20096;-86
2021/12/05 14:24:40;;;;;;;17.52;10.98;;;7.80;99.90;;;;;;5088899;28;20048;-76
2021/12/05 14:27:10;;;;;;;18.70;11.10;;;7.70;99.90;;;;;;5090426;28;20127;-87
2021/12/05 14:29:40;;;;;;;22.05;13.23;;;7.70;1.00;;;;;;5087817;28;20048;-87
2021/12/05 14:32:11;;;;;;;18.83;12.38;;;7.70;99.90;;;;;;5092386;28;20133;-85
2021/12/05 14:34:40;;;;;;;26.27;17.13;;;7.70;1.00;;;;;;5093388;28;20044;-83
2021/12/05 14:37:11;;;;;;;25.10;16.02;;;7.60;1.00;;;;;;5095390;28;20092;-85
2021/12/05 14:39:41;;;;;;;31.77;18.80;;;7.60;99.90;;;;;;5094837;28;20040;-87
2021/12/05 14:42:15;;;;;;;37.15;20.58;;;7.70;1.00;;;;;;5076763;28;20051;-85
2021/12/05 14:44:48;;;;;;;29.92;18.52;;;7.60;99.90;;;;;;5077413;28;20167;-85
2021/12/05 14:47:19;;;;;;;30.38;19.42;;;7.70;1.00;;;;;;5092245;28;20052;-84
2021/12/05 14:49:52;;;;;;;25.98;16.10;;;7.70;99.90;;;;;;5095906;28;20080;-83
2021/12/05 14:52:21;;;;;;;21.52;14.57;;;7.80;99.90;;;;;;5072389;28;20056;-86
2021/12/05 14:54:49;;;;;;;20.05;13.30;;;8.00;1.00;;;;;;5086129;28;20538;-89
2021/12/05 14:57:19;;;;;;;15.50;10.50;;;7.90;99.90;;;;;;5071536;28;20041;-86
2021/12/05 14:59:51;;;;;;;18.23;12.55;;;8.00;99.90;;;;;;5064917;28;20064;-86
2021/12/05 15:02:20;;;;;;;19.65;13.32;;;8.00;1.00;;;;;;5064318;28;20055;-85
2021/12/05 15:04:52;;;;;;;20.27;12.85;;;8.00;1.00;;;;;;5090059;28;20060;-84
2021/12/05 15:07:20;;;;;;;24.10;15.75;;;8.00;1.00;;;;;;5061818;28;20634;-85
2021/12/05 15:09:52;;;;;;;31.27;19.70;;;8.00;1.00;;;;;;5053777;28;20045;-85
2021/12/05 15:12:23;;;;;;;33.53;21.13;;;8.10;1.00;;;;;;5095376;28;20052;-83
2021/12/05 15:14:56;;;;;;;30.85;19.83;;;8.00;1.00;;;;;;5093540;28;20056;-85
2021/12/05 15:17:25;;;;;;;29.70;18.60;;;8.00;99.90;;;;;;5081850;28;20040;-86
2021/12/05 15:19:55;;;;;;;19.92;13.35;;;8.00;1.00;;;;;;5085462;28;20044;-87
2021/12/05 15:22:23;;;;;;;15.13;9.30;;;8.00;1.00;;;;;;5067950;28;20055;-86
2021/12/05 15:24:53;;;;;;;19.35;11.48;;;8.00;99.90;;;;;;5061360;28;20135;-87
2021/12/05 15:27:24;;;;;;;22.50;12.77;;;8.00;1.00;;;;;;5082404;28;20040;-84
2021/12/05 15:29:55;;;;;;;21.52;13.25;;;8.00;1.00;;;;;;5070578;28;20045;-88
2021/12/05 15:32:25;;;;;;;25.60;15.82;;;8.00;99.90;;;;;;5062828;28;20060;-87
2021/12/05 15:34:54;;;;;;;36.05;21.98;;;7.90;1.00;;;;;;5082684;28;20036;-88
2021/12/05 15:37:23;;;;;;;42.03;22.02;;;7.90;99.90;;;;;;5088607;28;20051;-86
2021/12/05 15:39:55;;;;;;;33.15;21.15;;;7.90;99.90;;;;;;5085923;28;20044;-87
2021/12/05 15:42:27;;;;;;;26.63;16.98;;;8.00;99.90;;;;;;5085589;28;20079;-87
2021/12/05 15:44:59;;;;;;;27.98;15.30;;;8.00;99.90;;;;;;5063845;28;20579;-87
2021/12/05 15:47:29;;;;;;;21.08;13.15;;;8.00;99.90;;;;;;5079609;28;20044;-86
2021/12/05 15:50:06;;;;;;;13.88;8.48;;;8.00;99.90;;;;;;5062192;28;20044;-88
2021/12/05 15:52:38;;;;;;;12.20;7.28;;;8.00;1.00;;;;;;5077915;28;20044;-86
2021/12/05 15:55:09;;;;;;;15.43;9.82;;;8.00;99.90;;;;;;5080020;28;20079;-86
2021/12/05 15:57:39;;;;;;;23.80;14.68;;;8.00;1.00;;;;;;5075225;28;20049;-85
2021/12/05 16:00:14;;;;;;;37.60;23.45;;;8.10;1.00;;;;;;5084329;28;20055;-84
2021/12/05 16:02:47;;;;;;;29.03;17.93;;;8.10;1.00;;;;;;5079409;28;20134;-83
2021/12/05 16:05:19;;;;;;;28.08;19.60;;;8.00;1.00;;;;;;5079211;28;20301;-85
2021/12/05 16:07:50;;;;;;;36.58;24.23;;;8.10;1.00;;;;;;5076603;28;20410;-87
2021/12/05 16:10:23;;;;;;;34.28;22.00;;;8.20;1.00;;;;;;5061074;28;20102;-86
2021/12/05 16:12:53;;;;;;;33.28;21.35;;;8.20;1.00;;;;;;5040583;28;20052;-86
2021/12/05 16:15:28;;;;;;;28.35;16.30;;;8.10;99.90;;;;;;5045812;28;20116;-85
2021/12/05 16:18:01;;;;;;;20.70;12.48;;;8.10;99.90;;;;;;5059154;28;20051;-85
2021/12/05 16:20:40;;;;;;;53.95;33.85;;;8.00;98.30;;;;;;5056975;28;20095;-86
2021/12/05 16:23:24;;;;;;;56.53;35.97;;;8.10;1.00;;;;;;5033454;28;20045;-85
2021/12/05 16:26:02;;;;;;;79.20;47.95;;;8.20;1.00;;;;;;5060179;28;20060;-86
2021/12/05 16:28:34;;;;;;;41.55;26.98;;;8.20;1.00;;;;;;5039771;28;20059;-85
2021/12/05 16:31:07;;;;;;;48.58;30.73;;;8.20;90.80;;;;;;5022290;28;20107;-86
2021/12/05 16:33:37;;;;;;;66.30;38.78;;;8.20;99.90;;;;;;5027433;28;20052;-84
2021/12/05 16:36:06;;;;;;;64.68;39.63;;;8.30;99.90;;;;;;5067106;28;20053;-84
2021/12/05 16:38:41;;;;;;;72.38;42.00;;;8.20;99.90;;;;;;5046818;28;20095;-86
2021/12/05 16:41:16;;;;;;;83.00;49.75;;;8.20;99.90;;;;;;5045149;28;20049;-85
2021/12/05 16:44:00;;;;;;;76.47;48.25;;;8.20;99.90;;;;;;5033497;28;20060;-84
2021/12/05 16:46:33;;;;;;;74.28;43.80;;;8.30;99.90;;;;;;5028037;28;20049;-81
2021/12/05 16:49:03;;;;;;;80.60;50.22;;;8.30;99.90;;;;;;5038859;28;20041;-79
2021/12/05 16:51:35;;;;;;;71.78;45.90;;;8.30;99.90;;;;;;5057468;28;20068;-81
2021/12/05 16:54:05;;;;;;;74.60;47.13;;;8.20;99.90;;;;;;5050627;28;20049;-80
2021/12/05 16:56:46;;;;;;;83.50;52.38;;;8.30;99.90;;;;;;5056116;28;20053;-81
2021/12/05 16:59:17;;;;;;;95.50;57.17;;;8.30;1.00;;;;;;5058327;28;20037;-82
2021/12/05 17:01:47;;;;;;;134.82;82.47;;;8.40;1.00;;;;;;5057923;28;20097;-80
2021/12/05 17:04:15;;;;;;;170.77;105.53;;;8.40;99.90;;;;;;5061450;28;20048;-82